sensor_id;sensor_type;location;lat;lon;timestamp;temperature;humidity
30069;DHT22;16894;49.456;10.644;2023-05-14T00:01:17;6.70;99.90
30069;DHT22;16894;49.456;10.644;2023-05-14T00:03:43;6.60;99.90
30069;DHT22;16894;49.456;10.644;2023-05-14T00:06:09;6.70;99.90
30069;DHT22;16894;49.456;10.644;2023-05-14T00:08:35;6.70;99.90
30069;DHT22;16894;49.456;10.644;2023-05-14T00:11:01;6.70;99.90
30069;DHT22;16894;49.456;10.644;2023-05-14T00:13:27;6.60;99.90
30069;DHT22;16894;49.456;10.644;2023-05-14T00:15:52;6.50;99.90
30069;DHT22;16894;49.456;10.644;2023-05-14T00:18:18;6.50;99.90
30069;DHT22;16894;49.456;10.644;2023-05-14T00:20:43;6.50;99.90
30069;DHT22;16894;49.456;10.644;2023-05-14T00:23:09;6.40;99.90
30069;DHT22;16894;49.456;10.644;2023-05-14T00:25:35;6.50;99.90
30069;DHT22;16894;49.456;10.644;2023-05-14T00:28:02;6.50;99.90
30069;DHT22;16894;49.456;10.644;2023-05-14T00:30:27;6.50;99.90
30069;DHT22;16894;49.456;10.644;2023-05-14T00:32:53;6.40;99.90
30069;DHT22;16894;49.456;10.644;2023-05-14T00:35:19;6.30;99.90
30069;DHT22;16894;49.456;10.644;2023-05-14T00:37:45;6.10;99.90
30069;DHT22;16894;49.456;10.644;2023-05-14T00:40:12;6.10;99.90
30069;DHT22;16894;49.456;10.644;2023-05-14T00:42:39;6.10;99.90
30069;DHT22;16894;49.456;10.644;2023-05-14T00:45:05;6.30;99.90
30069;DHT22;16894;49.456;10.644;2023-05-14T00:47:31;6.30;99.90
30069;DHT22;16894;49.456;10.644;2023-05-14T00:49:59;6.30;99.90
30069;DHT22;16894;49.456;10.644;2023-05-14T00:52:25;6.20;99.90
30069;DHT22;16894;49.456;10.644;2023-05-14T00:54:51;6.30;99.90
30069;DHT22;16894;49.456;10.644;2023-05-14T00:57:17;6.30;99.90
30069;DHT22;16894;49.456;10.644;2023-05-14T00:59:43;6.30;99.90
30069;DHT22;16894;49.456;10.644;2023-05-14T01:02:09;6.20;99.90
30069;DHT22;16894;49.456;10.644;2023-05-14T01:04:35;6.20;99.90
30069;DHT22;16894;49.456;10.644;2023-05-14T01:09:47;5.90;99.90
30069;DHT22;16894;49.456;10.644;2023-05-14T01:12:24;5.80;99.90
30069;DHT22;16894;49.456;10.644;2023-05-14T01:15:05;5.60;99.90
30069;DHT22;16894;49.456;10.644;2023-05-14T01:17:39;5.60;99.90
30069;DHT22;16894;49.456;10.644;2023-05-14T01:20:07;5.50;99.90
30069;DHT22;16894;49.456;10.644;2023-05-14T01:22:33;5.50;99.90
30069;DHT22;16894;49.456;10.644;2023-05-14T01:24:59;5.40;99.90
30069;DHT22;16894;49.456;10.644;2023-05-14T01:30:34;5.40;99.90
30069;DHT22;16894;49.456;10.644;2023-05-14T01:33:05;5.40;99.90
30069;DHT22;16894;49.456;10.644;2023-05-14T01:35:34;5.50;99.90
30069;DHT22;16894;49.456;10.644;2023-05-14T01:38:02;5.60;99.90
30069;DHT22;16894;49.456;10.644;2023-05-14T01:40:30;5.80;99.90
30069;DHT22;16894;49.456;10.644;2023-05-14T01:42:56;5.90;99.90
30069;DHT22;16894;49.456;10.644;2023-05-14T01:45:23;6.00;99.90
30069;DHT22;16894;49.456;10.644;2023-05-14T01:47:49;6.00;99.90
30069;DHT22;16894;49.456;10.644;2023-05-14T01:50:15;6.00;99.90
30069;DHT22;16894;49.456;10.644;2023-05-14T01:52:41;6.10;99.90
30069;DHT22;16894;49.456;10.644;2023-05-14T01:55:08;6.20;99.90
30069;DHT22;16894;49.456;10.644;2023-05-14T01:57:33;6.20;99.90
30069;DHT22;16894;49.456;10.644;2023-05-14T01:59:59;6.10;99.90
30069;DHT22;16894;49.456;10.644;2023-05-14T02:02:25;6.10;99.90
30069;DHT22;16894;49.456;10.644;2023-05-14T02:04:50;6.00;99.90
30069;DHT22;16894;49.456;10.644;2023-05-14T02:07:16;6.10;99.90
30069;DHT22;16894;49.456;10.644;2023-05-14T02:09:42;6.10;99.90
30069;DHT22;16894;49.456;10.644;2023-05-14T02:12:08;6.20;99.90
30069;DHT22;16894;49.456;10.644;2023-05-14T02:14:35;6.30;99.90
30069;DHT22;16894;49.456;10.644;2023-05-14T02:17:01;6.40;99.90
30069;DHT22;16894;49.456;10.644;2023-05-14T02:19:28;6.40;99.90
30069;DHT22;16894;49.456;10.644;2023-05-14T02:21:53;6.40;99.90
30069;DHT22;16894;49.456;10.644;2023-05-14T02:24:19;6.40;99.90
30069;DHT22;16894;49.456;10.644;2023-05-14T02:26:45;6.50;99.90
30069;DHT22;16894;49.456;10.644;2023-05-14T02:29:10;6.50;99.90
30069;DHT22;16894;49.456;10.644;2023-05-14T02:31:36;6.60;99.90
30069;DHT22;16894;49.456;10.644;2023-05-14T02:34:02;6.60;99.90
30069;DHT22;16894;49.456;10.644;2023-05-14T02:36:29;6.60;99.90
30069;DHT22;16894;49.456;10.644;2023-05-14T02:38:57;6.60;99.90
30069;DHT22;16894;49.456;10.644;2023-05-14T02:41:23;6.60;99.90
30069;DHT22;16894;49.456;10.644;2023-05-14T02:43:49;6.60;99.90
30069;DHT22;16894;49.456;10.644;2023-05-14T02:46:14;6.70;99.90
30069;DHT22;16894;49.456;10.644;2023-05-14T02:48:40;6.90;99.90
30069;DHT22;16894;49.456;10.644;2023-05-14T02:51:06;7.10;99.90
30069;DHT22;16894;49.456;10.644;2023-05-14T02:53:32;7.10;99.90
30069;DHT22;16894;49.456;10.644;2023-05-14T02:55:58;7.00;99.90
30069;DHT22;16894;49.456;10.644;2023-05-14T02:58:24;7.00;99.90
30069;DHT22;16894;49.456;10.644;2023-05-14T03:00:50;7.00;99.90
30069;DHT22;16894;49.456;10.644;2023-05-14T03:03:17;7.10;99.90
30069;DHT22;16894;49.456;10.644;2023-05-14T03:05:43;7.10;99.90
30069;DHT22;16894;49.456;10.644;2023-05-14T03:08:08;7.20;99.90
30069;DHT22;16894;49.456;10.644;2023-05-14T03:10:34;7.30;99.90
30069;DHT22;16894;49.456;10.644;2023-05-14T03:13:00;7.40;99.90
30069;DHT22;16894;49.456;10.644;2023-05-14T03:15:25;7.50;99.90
30069;DHT22;16894;49.456;10.644;2023-05-14T03:17:53;7.50;99.90
30069;DHT22;16894;49.456;10.644;2023-05-14T03:20:19;7.50;99.90
30069;DHT22;16894;49.456;10.644;2023-05-14T03:22:44;7.60;99.90
30069;DHT22;16894;49.456;10.644;2023-05-14T03:25:10;7.70;99.90
30069;DHT22;16894;49.456;10.644;2023-05-14T03:27:36;7.60;99.90
30069;DHT22;16894;49.456;10.644;2023-05-14T03:30:01;7.50;99.90
30069;DHT22;16894;49.456;10.644;2023-05-14T03:32:27;7.50;99.90
30069;DHT22;16894;49.456;10.644;2023-05-14T03:34:53;7.60;99.90
30069;DHT22;16894;49.456;10.644;2023-05-14T03:37:19;7.60;99.90
30069;DHT22;16894;49.456;10.644;2023-05-14T03:39:44;7.60;99.90
30069;DHT22;16894;49.456;10.644;2023-05-14T03:42:10;7.60;99.90
30069;DHT22;16894;49.456;10.644;2023-05-14T03:44:36;7.50;99.90
30069;DHT22;16894;49.456;10.644;2023-05-14T03:47:01;7.50;99.90
30069;DHT22;16894;49.456;10.644;2023-05-14T03:49:27;7.50;99.90
30069;DHT22;16894;49.456;10.644;2023-05-14T03:51:53;7.50;99.90
30069;DHT22;16894;49.456;10.644;2023-05-14T03:54:18;7.60;99.90
30069;DHT22;16894;49.456;10.644;2023-05-14T03:56:44;7.60;99.90
30069;DHT22;16894;49.456;10.644;2023-05-14T03:59:10;7.70;99.90
30069;DHT22;16894;49.456;10.644;2023-05-14T04:01:35;7.70;99.90
30069;DHT22;16894;49.456;10.644;2023-05-14T04:04:01;7.70;99.90
30069;DHT22;16894;49.456;10.644;2023-05-14T04:06:27;7.70;99.90
30069;DHT22;16894;49.456;10.644;2023-05-14T04:08:52;7.80;99.90
30069;DHT22;16894;49.456;10.644;2023-05-14T04:11:18;7.80;99.90
30069;DHT22;16894;49.456;10.644;2023-05-14T04:13:45;7.90;99.90
30069;DHT22;16894;49.456;10.644;2023-05-14T04:16:13;8.00;99.90
30069;DHT22;16894;49.456;10.644;2023-05-14T04:18:39;8.10;99.90
30069;DHT22;16894;49.456;10.644;2023-05-14T04:21:05;8.10;99.90
30069;DHT22;16894;49.456;10.644;2023-05-14T04:23:30;8.10;99.90
30069;DHT22;16894;49.456;10.644;2023-05-14T04:25:57;8.20;99.90
30069;DHT22;16894;49.456;10.644;2023-05-14T04:28:22;8.30;99.90
30069;DHT22;16894;49.456;10.644;2023-05-14T04:30:48;8.20;99.90
30069;DHT22;16894;49.456;10.644;2023-05-14T04:33:14;8.20;99.90
30069;DHT22;16894;49.456;10.644;2023-05-14T04:35:40;8.30;99.90
30069;DHT22;16894;49.456;10.644;2023-05-14T04:38:05;8.30;99.90
30069;DHT22;16894;49.456;10.644;2023-05-14T04:40:31;8.30;99.90
30069;DHT22;16894;49.456;10.644;2023-05-14T04:42:57;8.30;99.90
30069;DHT22;16894;49.456;10.644;2023-05-14T04:45:22;8.30;99.90
30069;DHT22;16894;49.456;10.644;2023-05-14T04:47:48;8.40;99.90
30069;DHT22;16894;49.456;10.644;2023-05-14T04:50:14;8.40;99.90
30069;DHT22;16894;49.456;10.644;2023-05-14T04:52:41;8.40;99.90
30069;DHT22;16894;49.456;10.644;2023-05-14T04:55:07;8.40;99.90
30069;DHT22;16894;49.456;10.644;2023-05-14T04:57:33;8.50;99.90
30069;DHT22;16894;49.456;10.644;2023-05-14T04:59:59;8.50;99.90
30069;DHT22;16894;49.456;10.644;2023-05-14T05:02:24;8.70;99.90
30069;DHT22;16894;49.456;10.644;2023-05-14T05:04:50;8.80;99.90
30069;DHT22;16894;49.456;10.644;2023-05-14T05:07:16;8.90;99.90
30069;DHT22;16894;49.456;10.644;2023-05-14T05:09:42;8.80;99.90
30069;DHT22;16894;49.456;10.644;2023-05-14T05:12:08;8.80;99.90
30069;DHT22;16894;49.456;10.644;2023-05-14T05:14:34;8.90;99.90
30069;DHT22;16894;49.456;10.644;2023-05-14T05:16:59;8.90;99.90
30069;DHT22;16894;49.456;10.644;2023-05-14T05:19:25;8.90;99.90
30069;DHT22;16894;49.456;10.644;2023-05-14T05:21:51;8.90;99.90
30069;DHT22;16894;49.456;10.644;2023-05-14T05:24:16;9.00;99.90
30069;DHT22;16894;49.456;10.644;2023-05-14T05:26:42;9.00;99.90
30069;DHT22;16894;49.456;10.644;2023-05-14T05:29:08;9.00;99.90
30069;DHT22;16894;49.456;10.644;2023-05-14T05:31:33;9.10;99.90
30069;DHT22;16894;49.456;10.644;2023-05-14T05:33:59;9.10;99.90
30069;DHT22;16894;49.456;10.644;2023-05-14T05:36:25;9.20;99.90
30069;DHT22;16894;49.456;10.644;2023-05-14T05:38:51;9.40;99.90
30069;DHT22;16894;49.456;10.644;2023-05-14T05:41:17;9.50;99.90
30069;DHT22;16894;49.456;10.644;2023-05-14T05:43:43;9.70;99.90
30069;DHT22;16894;49.456;10.644;2023-05-14T05:46:08;9.80;99.90
30069;DHT22;16894;49.456;10.644;2023-05-14T05:48:34;10.00;99.90
30069;DHT22;16894;49.456;10.644;2023-05-14T05:51:00;10.10;99.90
30069;DHT22;16894;49.456;10.644;2023-05-14T05:53:25;10.20;99.90
30069;DHT22;16894;49.456;10.644;2023-05-14T05:55:51;10.40;99.90
30069;DHT22;16894;49.456;10.644;2023-05-14T05:58:17;10.60;99.90
30069;DHT22;16894;49.456;10.644;2023-05-14T06:00:44;10.70;99.90
30069;DHT22;16894;49.456;10.644;2023-05-14T06:03:10;10.90;99.90
30069;DHT22;16894;49.456;10.644;2023-05-14T06:05:36;10.90;99.90
30069;DHT22;16894;49.456;10.644;2023-05-14T06:08:02;11.10;99.90
30069;DHT22;16894;49.456;10.644;2023-05-14T06:10:27;11.10;99.90
30069;DHT22;16894;49.456;10.644;2023-05-14T06:13:00;11.20;99.90
30069;DHT22;16894;49.456;10.644;2023-05-14T06:15:25;11.40;99.90
30069;DHT22;16894;49.456;10.644;2023-05-14T06:17:51;11.50;99.90
30069;DHT22;16894;49.456;10.644;2023-05-14T06:20:16;11.60;99.90
30069;DHT22;16894;49.456;10.644;2023-05-14T06:22:42;11.70;99.90
30069;DHT22;16894;49.456;10.644;2023-05-14T06:25:08;11.90;99.90
30069;DHT22;16894;49.456;10.644;2023-05-14T06:27:34;12.00;99.90
30069;DHT22;16894;49.456;10.644;2023-05-14T06:30:00;12.20;99.90
30069;DHT22;16894;49.456;10.644;2023-05-14T06:32:25;12.30;99.90
30069;DHT22;16894;49.456;10.644;2023-05-14T06:34:51;12.50;99.90
30069;DHT22;16894;49.456;10.644;2023-05-14T06:37:17;12.60;99.90
30069;DHT22;16894;49.456;10.644;2023-05-14T06:39:42;12.80;99.90
30069;DHT22;16894;49.456;10.644;2023-05-14T06:42:17;12.90;99.90
30069;DHT22;16894;49.456;10.644;2023-05-14T06:44:43;12.90;99.90
30069;DHT22;16894;49.456;10.644;2023-05-14T06:47:09;13.00;99.90
30069;DHT22;16894;49.456;10.644;2023-05-14T06:49:35;13.00;99.90
30069;DHT22;16894;49.456;10.644;2023-05-14T06:52:01;13.10;99.90
30069;DHT22;16894;49.456;10.644;2023-05-14T06:54:26;13.10;99.90
30069;DHT22;16894;49.456;10.644;2023-05-14T06:56:52;13.00;99.90
30069;DHT22;16894;49.456;10.644;2023-05-14T06:59:18;13.00;99.90
30069;DHT22;16894;49.456;10.644;2023-05-14T07:01:45;12.90;99.90
30069;DHT22;16894;49.456;10.644;2023-05-14T07:04:10;12.80;99.90
30069;DHT22;16894;49.456;10.644;2023-05-14T07:06:36;12.80;99.90
30069;DHT22;16894;49.456;10.644;2023-05-14T07:09:03;12.70;99.90
30069;DHT22;16894;49.456;10.644;2023-05-14T07:11:29;12.60;99.90
30069;DHT22;16894;49.456;10.644;2023-05-14T07:13:55;12.60;99.90
30069;DHT22;16894;49.456;10.644;2023-05-14T07:16:20;12.70;99.90
30069;DHT22;16894;49.456;10.644;2023-05-14T07:18:46;12.70;99.90
30069;DHT22;16894;49.456;10.644;2023-05-14T07:21:11;12.80;99.90
30069;DHT22;16894;49.456;10.644;2023-05-14T07:23:37;12.90;99.90
30069;DHT22;16894;49.456;10.644;2023-05-14T07:26:06;13.10;99.90
30069;DHT22;16894;49.456;10.644;2023-05-14T07:28:32;13.20;99.90
30069;DHT22;16894;49.456;10.644;2023-05-14T07:30:59;13.30;99.90
30069;DHT22;16894;49.456;10.644;2023-05-14T07:33:24;13.30;99.90
30069;DHT22;16894;49.456;10.644;2023-05-14T07:35:51;13.20;99.90
30069;DHT22;16894;49.456;10.644;2023-05-14T07:38:17;13.30;99.90
30069;DHT22;16894;49.456;10.644;2023-05-14T07:40:43;13.40;99.90
30069;DHT22;16894;49.456;10.644;2023-05-14T07:43:09;13.50;99.90
30069;DHT22;16894;49.456;10.644;2023-05-14T07:45:38;13.60;99.90
30069;DHT22;16894;49.456;10.644;2023-05-14T07:48:04;13.80;99.90
30069;DHT22;16894;49.456;10.644;2023-05-14T07:50:30;13.90;99.90
30069;DHT22;16894;49.456;10.644;2023-05-14T07:52:56;14.10;99.90
30069;DHT22;16894;49.456;10.644;2023-05-14T07:55:22;14.20;99.90
30069;DHT22;16894;49.456;10.644;2023-05-14T07:57:47;14.20;99.90
30069;DHT22;16894;49.456;10.644;2023-05-14T08:00:13;14.30;99.90
30069;DHT22;16894;49.456;10.644;2023-05-14T08:02:40;14.60;99.90
30069;DHT22;16894;49.456;10.644;2023-05-14T08:05:07;14.70;99.90
30069;DHT22;16894;49.456;10.644;2023-05-14T08:07:33;15.00;99.90
30069;DHT22;16894;49.456;10.644;2023-05-14T08:10:18;15.00;99.90
30069;DHT22;16894;49.456;10.644;2023-05-14T08:13:02;14.90;99.90
30069;DHT22;16894;49.456;10.644;2023-05-14T08:15:46;14.90;99.90
30069;DHT22;16894;49.456;10.644;2023-05-14T08:18:31;15.00;99.90
30069;DHT22;16894;49.456;10.644;2023-05-14T08:21:15;15.00;99.90
30069;DHT22;16894;49.456;10.644;2023-05-14T08:23:59;15.00;99.90
30069;DHT22;16894;49.456;10.644;2023-05-14T08:26:43;15.10;99.90
30069;DHT22;16894;49.456;10.644;2023-05-14T08:29:28;15.10;99.90
30069;DHT22;16894;49.456;10.644;2023-05-14T08:32:12;15.20;99.90
30069;DHT22;16894;49.456;10.644;2023-05-14T08:34:56;15.30;99.90
30069;DHT22;16894;49.456;10.644;2023-05-14T08:37:40;15.20;99.90
30069;DHT22;16894;49.456;10.644;2023-05-14T08:40:25;15.20;99.90
30069;DHT22;16894;49.456;10.644;2023-05-14T08:43:10;15.20;99.90
30069;DHT22;16894;49.456;10.644;2023-05-14T08:46:00;15.20;99.90
30069;DHT22;16894;49.456;10.644;2023-05-14T08:48:50;15.30;99.90
30069;DHT22;16894;49.456;10.644;2023-05-14T08:51:38;15.30;99.90
30069;DHT22;16894;49.456;10.644;2023-05-14T08:54:23;15.10;99.90
30069;DHT22;16894;49.456;10.644;2023-05-14T08:57:09;15.00;99.90
30069;DHT22;16894;49.456;10.644;2023-05-14T08:59:53;14.90;99.90
30069;DHT22;16894;49.456;10.644;2023-05-14T09:02:41;14.90;99.90
30069;DHT22;16894;49.456;10.644;2023-05-14T09:05:27;15.00;99.90
30069;DHT22;16894;49.456;10.644;2023-05-14T09:08:11;15.00;99.90
30069;DHT22;16894;49.456;10.644;2023-05-14T09:10:56;15.10;99.90
30069;DHT22;16894;49.456;10.644;2023-05-14T09:13:40;15.10;99.90
30069;DHT22;16894;49.456;10.644;2023-05-14T09:16:25;14.90;99.90
30069;DHT22;16894;49.456;10.644;2023-05-14T09:19:10;14.90;99.90
30069;DHT22;16894;49.456;10.644;2023-05-14T09:21:56;14.90;99.90
30069;DHT22;16894;49.456;10.644;2023-05-14T09:24:44;14.90;99.90
30069;DHT22;16894;49.456;10.644;2023-05-14T09:27:30;14.80;99.90
30069;DHT22;16894;49.456;10.644;2023-05-14T09:30:15;14.90;99.90
30069;DHT22;16894;49.456;10.644;2023-05-14T09:32:59;14.90;99.90
30069;DHT22;16894;49.456;10.644;2023-05-14T09:35:43;14.90;99.90
30069;DHT22;16894;49.456;10.644;2023-05-14T09:38:33;14.80;99.90
30069;DHT22;16894;49.456;10.644;2023-05-14T09:41:17;14.80;99.90
30069;DHT22;16894;49.456;10.644;2023-05-14T09:44:02;14.80;99.90
30069;DHT22;16894;49.456;10.644;2023-05-14T09:46:47;14.80;99.90
30069;DHT22;16894;49.456;10.644;2023-05-14T09:49:31;14.70;99.90
30069;DHT22;16894;49.456;10.644;2023-05-14T09:52:18;14.60;99.90
30069;DHT22;16894;49.456;10.644;2023-05-14T09:55:02;14.70;99.90
30069;DHT22;16894;49.456;10.644;2023-05-14T09:57:46;14.70;99.90
30069;DHT22;16894;49.456;10.644;2023-05-14T10:00:32;14.80;99.90
30069;DHT22;16894;49.456;10.644;2023-05-14T10:03:17;15.00;99.90
30069;DHT22;16894;49.456;10.644;2023-05-14T10:06:04;15.10;99.90
30069;DHT22;16894;49.456;10.644;2023-05-14T10:08:54;15.40;99.90
30069;DHT22;16894;49.456;10.644;2023-05-14T10:11:42;15.60;99.90
30069;DHT22;16894;49.456;10.644;2023-05-14T10:14:40;15.80;99.90
30069;DHT22;16894;49.456;10.644;2023-05-14T10:17:30;16.10;99.90
30069;DHT22;16894;49.456;10.644;2023-05-14T10:20:15;16.40;99.90
30069;DHT22;16894;49.456;10.644;2023-05-14T10:23:00;16.50;99.90
30069;DHT22;16894;49.456;10.644;2023-05-14T10:25:45;16.80;99.90
30069;DHT22;16894;49.456;10.644;2023-05-14T10:28:30;16.80;99.90
30069;DHT22;16894;49.456;10.644;2023-05-14T10:31:15;17.20;99.90
30069;DHT22;16894;49.456;10.644;2023-05-14T10:34:00;17.50;99.90
30069;DHT22;16894;49.456;10.644;2023-05-14T10:36:44;17.80;99.90
30069;DHT22;16894;49.456;10.644;2023-05-14T10:42:36;17.60;99.90
30069;DHT22;16894;49.456;10.644;2023-05-14T10:45:26;17.40;99.60
30069;DHT22;16894;49.456;10.644;2023-05-14T10:48:11;17.30;99.90
30069;DHT22;16894;49.456;10.644;2023-05-14T10:50:56;17.40;99.90
30069;DHT22;16894;49.456;10.644;2023-05-14T10:53:41;17.50;99.80
30069;DHT22;16894;49.456;10.644;2023-05-14T10:56:25;17.40;99.60
30069;DHT22;16894;49.456;10.644;2023-05-14T10:59:09;17.40;99.60
30069;DHT22;16894;49.456;10.644;2023-05-14T11:01:57;17.60;98.90
30069;DHT22;16894;49.456;10.644;2023-05-14T11:04:42;17.40;99.40
30069;DHT22;16894;49.456;10.644;2023-05-14T11:07:34;17.40;99.20
30069;DHT22;16894;49.456;10.644;2023-05-14T11:10:20;17.40;99.80
30069;DHT22;16894;49.456;10.644;2023-05-14T11:13:05;17.90;99.80
30069;DHT22;16894;49.456;10.644;2023-05-14T11:15:50;17.80;98.80
30069;DHT22;16894;49.456;10.644;2023-05-14T11:18:35;17.80;98.30
30069;DHT22;16894;49.456;10.644;2023-05-14T11:21:24;18.20;98.30
30069;DHT22;16894;49.456;10.644;2023-05-14T11:24:09;18.10;97.90
30069;DHT22;16894;49.456;10.644;2023-05-14T11:26:53;17.70;98.60
30069;DHT22;16894;49.456;10.644;2023-05-14T11:29:42;17.70;97.80
30069;DHT22;16894;49.456;10.644;2023-05-14T11:32:30;17.60;97.40
30069;DHT22;16894;49.456;10.644;2023-05-14T11:35:15;17.60;97.80
30069;DHT22;16894;49.456;10.644;2023-05-14T11:38:00;17.20;97.90
30069;DHT22;16894;49.456;10.644;2023-05-14T11:40:55;17.30;97.90
30069;DHT22;16894;49.456;10.644;2023-05-14T11:43:39;17.20;98.00
30069;DHT22;16894;49.456;10.644;2023-05-14T11:46:24;17.60;97.50
30069;DHT22;16894;49.456;10.644;2023-05-14T11:49:09;17.50;97.90
30069;DHT22;16894;49.456;10.644;2023-05-14T11:51:58;18.40;97.90
30069;DHT22;16894;49.456;10.644;2023-05-14T11:54:43;19.90;96.40
30069;DHT22;16894;49.456;10.644;2023-05-14T11:57:30;21.20;94.30
30069;DHT22;16894;49.456;10.644;2023-05-14T12:00:14;22.20;91.60
30069;DHT22;16894;49.456;10.644;2023-05-14T12:03:04;22.50;91.20
30069;DHT22;16894;49.456;10.644;2023-05-14T12:05:59;22.30;91.40
30069;DHT22;16894;49.456;10.644;2023-05-14T12:08:46;21.70;91.20
30069;DHT22;16894;49.456;10.644;2023-05-14T12:11:32;21.40;89.20
30069;DHT22;16894;49.456;10.644;2023-05-14T12:14:23;20.60;90.60
30069;DHT22;16894;49.456;10.644;2023-05-14T12:17:18;20.50;91.10
30069;DHT22;16894;49.456;10.644;2023-05-14T12:20:03;20.00;92.40
30069;DHT22;16894;49.456;10.644;2023-05-14T12:22:47;20.30;92.00
30069;DHT22;16894;49.456;10.644;2023-05-14T12:25:31;20.20;90.50
30069;DHT22;16894;49.456;10.644;2023-05-14T12:28:16;20.10;92.20
30069;DHT22;16894;49.456;10.644;2023-05-14T12:31:01;20.80;91.20
30069;DHT22;16894;49.456;10.644;2023-05-14T12:33:45;20.90;90.30
30069;DHT22;16894;49.456;10.644;2023-05-14T12:36:30;20.60;91.30
30069;DHT22;16894;49.456;10.644;2023-05-14T12:39:16;21.30;90.20
30069;DHT22;16894;49.456;10.644;2023-05-14T12:42:01;21.10;90.40
30069;DHT22;16894;49.456;10.644;2023-05-14T12:44:45;20.80;91.30
30069;DHT22;16894;49.456;10.644;2023-05-14T12:47:29;19.60;91.40
30069;DHT22;16894;49.456;10.644;2023-05-14T12:50:14;19.10;91.40
30069;DHT22;16894;49.456;10.644;2023-05-14T12:52:59;19.10;92.10
30069;DHT22;16894;49.456;10.644;2023-05-14T12:55:43;19.10;92.20
30069;DHT22;16894;49.456;10.644;2023-05-14T12:58:28;19.10;91.20
30069;DHT22;16894;49.456;10.644;2023-05-14T13:01:12;19.20;91.70
30069;DHT22;16894;49.456;10.644;2023-05-14T13:03:57;19.20;91.10
30069;DHT22;16894;49.456;10.644;2023-05-14T13:06:42;19.70;91.00
30069;DHT22;16894;49.456;10.644;2023-05-14T13:09:26;21.40;91.30
30069;DHT22;16894;49.456;10.644;2023-05-14T13:12:10;22.20;87.70
30069;DHT22;16894;49.456;10.644;2023-05-14T13:14:54;22.80;84.40
30069;DHT22;16894;49.456;10.644;2023-05-14T13:17:39;23.50;80.90
30069;DHT22;16894;49.456;10.644;2023-05-14T13:20:24;23.90;82.70
30069;DHT22;16894;49.456;10.644;2023-05-14T13:23:10;25.20;76.00
30069;DHT22;16894;49.456;10.644;2023-05-14T13:25:54;25.80;75.30
30069;DHT22;16894;49.456;10.644;2023-05-14T13:28:39;26.70;72.60
30069;DHT22;16894;49.456;10.644;2023-05-14T13:31:23;26.40;70.30
30069;DHT22;16894;49.456;10.644;2023-05-14T13:34:08;25.70;68.80
30069;DHT22;16894;49.456;10.644;2023-05-14T13:36:53;24.20;69.20
30069;DHT22;16894;49.456;10.644;2023-05-14T13:39:37;25.40;73.20
30069;DHT22;16894;49.456;10.644;2023-05-14T13:42:22;25.70;68.40
30069;DHT22;16894;49.456;10.644;2023-05-14T13:45:07;24.60;71.30
30069;DHT22;16894;49.456;10.644;2023-05-14T13:47:52;25.10;70.20
30069;DHT22;16894;49.456;10.644;2023-05-14T13:50:36;24.40;73.90
30069;DHT22;16894;49.456;10.644;2023-05-14T13:53:21;23.10;74.70
30069;DHT22;16894;49.456;10.644;2023-05-14T13:56:05;22.30;75.50
30069;DHT22;16894;49.456;10.644;2023-05-14T13:58:51;22.10;76.50
30069;DHT22;16894;49.456;10.644;2023-05-14T14:01:36;21.90;76.50
30069;DHT22;16894;49.456;10.644;2023-05-14T14:04:20;21.70;76.20
30069;DHT22;16894;49.456;10.644;2023-05-14T14:07:05;21.90;77.00
30069;DHT22;16894;49.456;10.644;2023-05-14T14:09:49;23.10;77.10
30069;DHT22;16894;49.456;10.644;2023-05-14T14:12:33;25.00;72.60
30069;DHT22;16894;49.456;10.644;2023-05-14T14:15:17;26.80;69.00
30069;DHT22;16894;49.456;10.644;2023-05-14T14:18:02;28.50;66.10
30069;DHT22;16894;49.456;10.644;2023-05-14T14:20:46;28.20;68.20
30069;DHT22;16894;49.456;10.644;2023-05-14T14:23:30;27.40;73.00
30069;DHT22;16894;49.456;10.644;2023-05-14T14:26:14;25.80;67.50
30069;DHT22;16894;49.456;10.644;2023-05-14T14:28:59;23.90;70.80
30069;DHT22;16894;49.456;10.644;2023-05-14T14:31:43;22.40;73.50
30069;DHT22;16894;49.456;10.644;2023-05-14T14:34:27;21.80;75.80
30069;DHT22;16894;49.456;10.644;2023-05-14T14:37:12;21.10;75.20
30069;DHT22;16894;49.456;10.644;2023-05-14T14:39:57;20.30;76.80
30069;DHT22;16894;49.456;10.644;2023-05-14T14:42:41;19.70;79.70
30069;DHT22;16894;49.456;10.644;2023-05-14T14:45:26;21.60;77.60
30069;DHT22;16894;49.456;10.644;2023-05-14T14:51:09;24.50;71.40
30069;DHT22;16894;49.456;10.644;2023-05-14T14:53:53;25.70;68.30
30069;DHT22;16894;49.456;10.644;2023-05-14T14:56:37;26.60;66.10
30069;DHT22;16894;49.456;10.644;2023-05-14T14:59:22;27.50;64.60
30069;DHT22;16894;49.456;10.644;2023-05-14T15:02:07;27.30;65.00
30069;DHT22;16894;49.456;10.644;2023-05-14T15:04:53;27.10;65.40
30069;DHT22;16894;49.456;10.644;2023-05-14T15:07:37;26.10;65.20
30069;DHT22;16894;49.456;10.644;2023-05-14T15:10:22;25.30;67.40
30069;DHT22;16894;49.456;10.644;2023-05-14T15:13:06;24.30;68.40
30069;DHT22;16894;49.456;10.644;2023-05-14T15:15:51;22.60;69.80
30069;DHT22;16894;49.456;10.644;2023-05-14T15:18:35;21.50;72.40
30069;DHT22;16894;49.456;10.644;2023-05-14T15:21:20;20.90;74.00
30069;DHT22;16894;49.456;10.644;2023-05-14T15:24:04;20.20;75.00
30069;DHT22;16894;49.456;10.644;2023-05-14T15:26:48;19.80;78.50
30069;DHT22;16894;49.456;10.644;2023-05-14T15:29:33;19.60;78.10
30069;DHT22;16894;49.456;10.644;2023-05-14T15:32:17;19.40;78.50
30069;DHT22;16894;49.456;10.644;2023-05-14T15:35:02;19.00;81.70
30069;DHT22;16894;49.456;10.644;2023-05-14T15:37:46;19.30;81.10
30069;DHT22;16894;49.456;10.644;2023-05-14T15:40:30;19.60;83.20
30069;DHT22;16894;49.456;10.644;2023-05-14T15:43:15;19.60;81.40
30069;DHT22;16894;49.456;10.644;2023-05-14T15:46:00;19.70;79.40
30069;DHT22;16894;49.456;10.644;2023-05-14T15:48:44;19.70;80.20
30069;DHT22;16894;49.456;10.644;2023-05-14T15:51:28;19.60;81.00
30069;DHT22;16894;49.456;10.644;2023-05-14T15:54:13;19.70;81.20
30069;DHT22;16894;49.456;10.644;2023-05-14T15:56:57;19.70;79.90
30069;DHT22;16894;49.456;10.644;2023-05-14T15:59:41;19.70;80.70
30069;DHT22;16894;49.456;10.644;2023-05-14T16:02:28;19.50;78.90
30069;DHT22;16894;49.456;10.644;2023-05-14T16:05:13;19.80;81.60
30069;DHT22;16894;49.456;10.644;2023-05-14T16:07:58;19.90;80.80
30069;DHT22;16894;49.456;10.644;2023-05-14T16:10:42;20.10;80.50
30069;DHT22;16894;49.456;10.644;2023-05-14T16:13:26;20.30;79.50
30069;DHT22;16894;49.456;10.644;2023-05-14T16:16:10;20.30;79.00
30069;DHT22;16894;49.456;10.644;2023-05-14T16:18:54;20.30;77.90
30069;DHT22;16894;49.456;10.644;2023-05-14T16:21:38;20.50;79.60
30069;DHT22;16894;49.456;10.644;2023-05-14T16:24:22;20.60;78.20